Time;durP1;ratioP1;P1;durP2;ratioP2;P2;SDS_P1;SDS_P2;PMS_P1;PMS_P2;Temp;Humidity;BMP_temperature;BMP_pressure;BME280_temperature;BME280_humidity;BME280_pressure;Samples;Min_cycle;Max_cycle;Signal;HPM_P1;HPM_P2
2021/09/03 00:02:15;;;;;;;20.30;13.05;;;;;;;10.76;77.58;101352.95;1714084;83;21002;-71
2021/09/03 00:04:41;;;;;;;20.77;12.10;;;;;;;10.74;77.62;101352.23;1713815;83;21499;-71
2021/09/03 00:07:08;;;;;;;21.50;12.50;;;;;;;10.71;77.68;101348.53;1713814;83;21657;-71
2021/09/03 00:09:36;;;;;;;20.30;12.60;;;;;;;10.68;77.72;101343.01;1691781;83;21038;-71
2021/09/03 00:12:04;;;;;;;19.67;11.90;;;;;;;10.67;77.79;101337.80;1713734;83;21075;-71
2021/09/03 00:14:30;;;;;;;20.00;12.33;;;;;;;10.66;77.85;101337.48;1714118;83;21016;-71
2021/09/03 00:16:57;;;;;;;21.23;12.60;;;;;;;10.64;77.89;101336.77;1713653;83;21072;-71
2021/09/03 00:19:22;;;;;;;19.57;11.65;;;;;;;10.63;77.94;101340.42;1713680;83;20971;-71
2021/09/03 00:21:48;;;;;;;18.15;11.45;;;;;;;10.59;77.97;101331.87;1713321;83;21023;-71
2021/09/03 00:24:15;;;;;;;22.50;13.50;;;;;;;10.59;78.04;101325.72;1713911;83;21046;-70
2021/09/03 00:26:41;;;;;;;22.58;12.88;;;;;;;10.56;78.09;101324.66;1713837;83;21535;-71
2021/09/03 00:29:07;;;;;;;23.25;12.50;;;;;;;10.55;78.12;101329.67;1713731;83;20999;-71
2021/09/03 00:31:33;;;;;;;20.85;12.05;;;;;;;10.53;78.16;101330.64;1713912;83;21015;-71
2021/09/03 00:33:59;;;;;;;20.85;10.63;;;;;;;10.50;78.22;101327.43;1713341;83;21007;-71
2021/09/03 00:36:25;;;;;;;21.37;12.00;;;;;;;10.48;78.26;101330.23;1713762;83;21407;-71
2021/09/03 00:38:51;;;;;;;21.70;12.23;;;;;;;10.45;78.30;101327.86;1713862;83;21027;-71
2021/09/03 00:41:17;;;;;;;20.45;12.80;;;;;;;10.44;78.35;101328.87;1713984;83;21021;-71
2021/09/03 00:43:44;;;;;;;23.15;12.00;;;;;;;10.41;78.41;101327.80;1713879;83;21530;-71
2021/09/03 00:46:10;;;;;;;17.70;11.50;;;;;;;10.39;78.46;101325.78;1691659;83;21074;-71
2021/09/03 00:48:36;;;;;;;17.40;11.80;;;;;;;10.37;78.48;101322.44;1713810;83;21039;-71
2021/09/03 00:51:03;;;;;;;21.23;10.68;;;;;;;10.35;78.55;101317.73;1713503;83;21587;-71
2021/09/03 00:53:29;;;;;;;18.30;11.48;;;;;;;10.31;78.58;101308.34;1714108;83;21835;-71
2021/09/03 00:55:55;;;;;;;17.15;10.63;;;;;;;10.30;78.62;101316.01;1713899;83;21026;-71
2021/09/03 00:58:21;;;;;;;19.02;11.18;;;;;;;10.28;78.65;101315.30;1713834;83;21018;-70
2021/09/03 01:00:49;;;;;;;20.23;11.48;;;;;;;10.26;78.73;101313.28;1713836;83;21030;-71
2021/09/03 01:03:16;;;;;;;23.47;14.10;;;;;;;10.25;78.77;101316.08;1713821;83;21027;-70
2021/09/03 01:05:42;;;;;;;25.02;14.78;;;;;;;10.23;78.81;101309.58;1713885;83;21699;-71
2021/09/03 01:08:08;;;;;;;19.52;11.73;;;;;;;10.23;78.85;101308.73;1713258;83;20999;-71
2021/09/03 01:10:34;;;;;;;17.67;12.35;;;;;;;10.21;78.87;101311.53;1713992;83;20983;-71
2021/09/03 01:13:00;;;;;;;18.77;11.83;;;;;;;10.18;78.90;101297.16;1713435;83;21102;-71
2021/09/03 01:15:27;;;;;;;19.45;11.40;;;;;;;10.16;78.93;101292.48;1714015;83;21042;-71
2021/09/03 01:17:53;;;;;;;20.88;11.43;;;;;;;10.14;78.99;101299.77;1713517;83;21121;-71
2021/09/03 01:20:19;;;;;;;21.27;11.83;;;;;;;10.13;79.03;101298.56;1713623;83;21019;-71
2021/09/03 01:22:45;;;;;;;18.23;11.90;;;;;;;10.11;79.07;101293.37;1713830;83;21019;-71
2021/09/03 01:25:11;;;;;;;18.57;12.43;;;;;;;10.09;79.10;101283.36;1713944;83;21075;-71
2021/09/03 01:27:38;;;;;;;25.90;12.70;;;;;;;10.08;79.15;101288.33;1713935;83;21574;-71
2021/09/03 01:30:06;;;;;;;22.95;13.68;;;;;;;10.05;79.20;101283.30;1713576;83;21143;-71
2021/09/03 01:32:32;;;;;;;24.12;15.18;;;;;;;10.03;79.23;101279.42;1691512;83;21071;-71
2021/09/03 01:34:58;;;;;;;22.80;15.00;;;;;;;10.03;79.26;101275.43;1713528;83;21038;-71
2021/09/03 01:37:24;;;;;;;27.75;13.83;;;;;;;10.04;79.28;101278.94;1713862;83;21051;-71
2021/09/03 01:39:50;;;;;;;21.62;13.72;;;;;;;10.03;79.31;101273.25;1714066;83;21018;-71
2021/09/03 01:42:16;;;;;;;28.00;15.10;;;;;;;10.02;79.35;101276.92;1714034;83;21752;-71
2021/09/03 01:44:42;;;;;;;21.97;13.83;;;;;;;10.00;79.42;101266.88;1713938;83;21296;-71
2021/09/03 01:47:08;;;;;;;23.60;13.95;;;;;;;9.98;79.46;101272.87;1714039;83;20994;-71
2021/09/03 01:49:34;;;;;;;18.50;12.28;;;;;;;9.95;79.48;101261.17;1714086;83;20983;-71
2021/09/03 01:52:00;;;;;;;25.30;14.13;;;;;;;9.93;79.51;101259.12;1713538;83;21537;-71
2021/09/03 01:54:26;;;;;;;21.02;12.82;;;;;;;9.91;79.54;101255.78;1714069;83;21994;-70
2021/09/03 01:56:52;;;;;;;21.45;13.75;;;;;;;9.89;79.58;101253.73;1713975;83;20999;-71
2021/09/03 01:59:18;;;;;;;22.95;14.65;;;;;;;9.88;79.63;101253.41;1713970;83;21067;-70
2021/09/03 02:01:44;;;;;;;22.65;14.07;;;;;;;9.90;79.64;101254.09;1714137;83;21027;-71
2021/09/03 02:04:10;;;;;;;21.57;14.23;;;;;;;9.90;79.68;101243.43;1713953;83;21098;-71
2021/09/03 02:06:36;;;;;;;23.47;14.58;;;;;;;9.91;79.71;101243.79;1713906;83;21105;-71
2021/09/03 02:09:02;;;;;;;19.37;12.65;;;;;;;9.92;79.76;101249.47;1713516;83;21098;-71
2021/09/03 02:11:28;;;;;;;31.02;15.50;;;;;;;9.92;79.80;101250.80;1714090;83;21624;-71
2021/09/03 02:13:54;;;;;;;24.85;14.68;;;;;;;9.91;79.84;101247.78;1713609;83;21067;-71
2021/09/03 02:16:20;;;;;;;29.12;14.95;;;;;;;9.90;79.87;101243.43;1714207;83;21082;-70
2021/09/03 02:18:48;;;;;;;22.93;14.25;;;;;;;9.87;79.91;101241.91;1713894;83;21074;-71
2021/09/03 02:21:14;;;;;;;25.37;14.28;;;;;;;9.88;79.95;101241.42;1713930;83;21440;-70
2021/09/03 02:23:40;;;;;;;29.80;14.20;;;;;;;9.88;80.00;101237.42;1714052;83;21109;-71
2021/09/03 02:26:06;;;;;;;30.32;15.35;;;;;;;9.89;80.07;101233.75;1713580;83;20995;-71
2021/09/03 02:28:32;;;;;;;27.95;15.05;;;;;;;9.89;80.09;101231.09;1714029;83;21027;-71
2021/09/03 02:30:58;;;;;;;30.08;15.90;;;;;;;9.87;80.13;101235.73;1713876;83;21102;-70
2021/09/03 02:33:24;;;;;;;30.37;16.30;;;;;;;9.85;80.20;101229.20;1713934;83;21058;-70
2021/09/03 02:35:50;;;;;;;32.50;15.98;;;;;;;9.86;80.22;101228.72;1713866;83;21574;-70
2021/09/03 02:38:16;;;;;;;25.85;15.30;;;;;;;9.86;80.28;101228.72;1713937;83;21519;-70
2021/09/03 02:40:42;;;;;;;26.73;14.83;;;;;;;9.85;80.32;101227.06;1714091;83;21519;-71
2021/09/03 02:43:08;;;;;;;35.43;16.62;;;;;;;9.87;80.34;101229.08;1713517;83;22472;-71
2021/09/03 02:45:34;;;;;;;31.23;16.77;;;;;;;9.88;80.37;101224.10;1714040;83;21070;-71
2021/09/03 02:48:01;;;;;;;30.40;16.00;;;;;;;9.87;80.43;101214.42;1713778;83;21163;-71
2021/09/03 02:50:30;;;;;;;26.30;15.50;;;;;;;9.89;80.45;101217.28;1713521;83;21055;-70
2021/09/03 02:52:58;;;;;;;27.90;16.17;;;;;;;9.89;80.50;101220.43;1713965;83;21070;-71
2021/09/03 02:55:26;;;;;;;25.55;15.60;;;;;;;9.87;80.55;101210.42;1713899;83;21145;-70
2021/09/03 02:57:52;;;;;;;31.50;17.67;;;;;;;9.86;80.61;101210.06;1714012;83;21012;-71
2021/09/03 03:00:18;;;;;;;38.73;21.60;;;;;;;9.87;80.65;101206.42;1713671;83;21535;-70
2021/09/03 03:02:45;;;;;;;33.55;18.70;;;;;;;9.87;80.68;101207.27;1714099;83;21075;-71
2021/09/03 03:05:11;;;;;;;40.95;21.12;;;;;;;9.88;80.73;101206.30;1713690;83;21071;-70
2021/09/03 03:07:37;;;;;;;33.63;20.15;;;;;;;9.89;80.77;101208.44;1713756;83;21133;-70
2021/09/03 03:10:05;;;;;;;28.52;19.67;;;;;;;9.90;80.81;101206.13;1713396;83;21040;-70
2021/09/03 03:12:31;;;;;;;31.23;17.10;;;;;;;9.91;80.88;101198.49;1713794;83;21591;-71
2021/09/03 03:14:57;;;;;;;23.67;15.75;;;;;;;9.93;80.91;101200.50;1713881;83;21058;-71
2021/09/03 03:17:23;;;;;;;29.50;17.27;;;;;;;9.94;80.94;101191.53;1713860;83;21011;-70
2021/09/03 03:19:49;;;;;;;24.23;17.10;;;;;;;9.97;80.98;101196.56;1713989;83;21078;-71
2021/09/03 03:22:16;;;;;;;25.77;17.90;;;;;;;10.02;81.01;101196.98;1713687;83;21063;-71
2021/09/03 04:16:30;;;;;;;30.90;21.93;;;;;;;11.38;81.73;101156.69;1817976;79;22680;-69
2021/09/03 04:18:56;;;;;;;31.70;23.60;;;;;;;11.44;81.78;101160.55;1755986;81;20983;-69
2021/09/03 04:21:22;;;;;;;35.95;23.30;;;;;;;11.54;81.82;101158.12;1755597;81;21115;-71
2021/09/03 04:23:48;;;;;;;31.87;23.35;;;;;;;11.60;81.86;101155.83;1724563;83;21062;-71
2021/09/03 04:26:14;;;;;;;40.50;26.12;;;;;;;11.63;81.90;101159.52;1755886;81;21720;-71
2021/09/03 04:28:40;;;;;;;36.88;24.65;;;;;;;11.67;81.98;101159.05;1725883;83;21058;-71
2021/09/03 04:31:06;;;;;;;37.05;24.12;;;;;;;11.71;82.04;101159.11;1756171;81;21022;-71
2021/09/03 04:33:32;;;;;;;42.78;24.63;;;;;;;11.74;82.09;101155.27;1726002;83;21189;-71
2021/09/03 04:35:58;;;;;;;42.35;24.92;;;;;;;11.75;82.16;101155.63;1755982;81;20979;-71
2021/09/03 04:38:25;;;;;;;40.08;23.60;;;;;;;11.76;82.21;101151.93;1755877;81;21015;-71
2021/09/03 04:40:51;;;;;;;41.23;25.60;;;;;;;11.75;82.31;101147.08;1726114;83;21063;-72
2021/09/03 04:43:17;;;;;;;40.17;23.55;;;;;;;11.75;82.36;101148.94;1755491;81;21518;-71
2021/09/03 04:45:43;;;;;;;41.08;24.98;;;;;;;11.75;82.43;101147.61;1725996;83;21781;-71
2021/09/03 04:48:09;;;;;;;43.70;25.88;;;;;;;11.77;82.50;101142.92;1755535;81;21038;-72
2021/09/03 04:50:35;;;;;;;39.90;23.83;;;;;;;11.78;82.55;101145.45;1725910;83;21007;-71
2021/09/03 04:53:01;;;;;;;34.80;24.20;;;;;;;11.83;82.60;101148.95;1755762;81;21002;-71
2021/09/03 04:55:27;;;;;;;33.75;22.07;;;;;;;11.88;82.65;101148.00;1725819;83;21066;-71
2021/09/03 04:57:53;;;;;;;33.33;23.60;;;;;;;11.90;82.71;101143.31;1756085;81;21162;-71
2021/09/03 05:00:19;;;;;;;33.65;23.05;;;;;;;11.95;82.76;101149.03;1723819;83;20999;-71
2021/09/03 05:02:46;;;;;;;31.33;21.25;;;;;;;11.97;82.80;101147.02;1756177;81;21496;-71
2021/09/03 05:05:12;;;;;;;32.65;22.70;;;;;;;12.02;82.88;101144.72;1755684;81;21480;-71
2021/09/03 05:07:38;;;;;;;39.33;22.60;;;;;;;12.04;82.92;101141.38;1726007;83;21014;-72
2021/09/03 05:10:05;;;;;;;43.23;23.45;;;;;;;12.06;82.98;101145.23;1756056;81;21139;-71
2021/09/03 05:12:31;;;;;;;36.20;23.22;;;;;;;12.07;83.02;101142.37;1719374;81;21582;-71
2021/09/03 05:14:57;;;;;;;38.53;21.60;;;;;;;12.08;83.07;101141.39;1716966;83;21059;-75
2021/09/03 05:17:23;;;;;;;41.28;22.62;;;;;;;12.11;83.12;101142.89;1713653;83;21078;-75
2021/09/03 05:19:50;;;;;;;46.75;25.30;;;;;;;12.11;83.15;101143.73;1727474;83;21023;-75
2021/09/03 05:22:16;;;;;;;47.38;22.50;;;;;;;12.14;83.23;101144.75;1727477;83;21138;-75
2021/09/03 05:24:42;;;;;;;44.80;23.00;;;;;;;12.19;83.27;101140.26;1727888;83;21021;-75
2021/09/03 05:27:08;;;;;;;36.77;21.37;;;;;;;12.20;83.29;101141.95;1727391;83;21003;-75
2021/09/03 05:29:34;;;;;;;35.30;21.97;;;;;;;12.21;83.32;101135.61;1727007;83;21050;-75
2021/09/03 05:32:00;;;;;;;32.45;21.05;;;;;;;12.22;83.36;101134.09;1725151;83;21047;-75
2021/09/03 05:34:27;;;;;;;36.38;22.65;;;;;;;12.28;83.43;101134.77;1743217;82;21180;-75
2021/09/03 05:36:53;;;;;;;33.08;22.17;;;;;;;12.32;83.43;101132.11;1746333;82;21508;-75
2021/09/03 05:39:19;;;;;;;36.65;21.17;;;;;;;12.38;83.46;101131.97;1736064;82;20988;-75
2021/09/03 05:41:45;;;;;;;32.08;22.32;;;;;;;12.45;83.51;101128.45;1739105;82;21039;-76
2021/09/03 05:44:11;;;;;;;33.67;21.42;;;;;;;12.53;83.53;101125.80;1740455;82;21066;-76
2021/09/03 05:46:37;;;;;;;30.08;20.55;;;;;;;12.62;83.57;101121.31;1728390;82;21030;-76
2021/09/03 05:49:03;;;;;;;31.70;21.70;;;;;;;12.74;83.57;101120.47;1737276;82;20983;-75
2021/09/03 05:51:29;;;;;;;27.80;19.75;;;;;;;12.85;83.58;101116.13;1671117;83;21483;-75
2021/09/03 05:53:55;;;;;;;32.67;21.82;;;;;;;12.99;83.58;101123.48;1713138;83;21012;-75
2021/09/03 05:56:21;;;;;;;27.75;18.05;;;;;;;13.21;83.57;101122.84;1718347;82;21047;-76
2021/09/03 05:58:47;;;;;;;23.35;17.20;;;;;;;13.30;83.57;101119.14;1726947;83;21551;-75
2021/09/03 06:01:13;;;;;;;25.92;17.55;;;;;;;13.60;83.55;101116.23;1720651;83;21444;-77
2021/09/03 06:03:39;;;;;;;26.12;18.27;;;;;;;14.00;83.51;101105.88;1718465;83;21086;-75
2021/09/03 06:06:05;;;;;;;23.40;17.70;;;;;;;14.23;83.48;101102.73;1716183;83;21068;-84
2021/09/03 06:08:31;;;;;;;20.72;16.45;;;;;;;14.52;83.45;101095.38;1708797;83;21011;-83
2021/09/03 06:10:57;;;;;;;24.32;16.77;;;;;;;14.67;83.37;101098.94;1713291;83;21119;-83
2021/09/03 06:13:23;;;;;;;22.10;16.25;;;;;;;14.94;83.29;101094.87;1715701;83;21050;-84
2021/09/03 06:15:49;;;;;;;20.40;15.00;;;;;;;15.11;82.83;101097.73;1708463;83;21106;-83
2021/09/03 06:18:15;;;;;;;19.40;14.55;;;;;;;15.21;82.97;101092.09;1723020;83;21019;-84
2021/09/03 06:20:41;;;;;;;21.73;14.33;;;;;;;15.19;82.77;101093.64;1713473;83;21112;-83
2021/09/03 06:23:07;;;;;;;21.10;15.28;;;;;;;15.26;82.61;101097.77;1688694;84;21135;-83
2021/09/03 06:25:34;;;;;;;17.37;14.85;;;;;;;15.52;82.52;101094.69;1695707;83;21075;-84
2021/09/03 06:28:00;;;;;;;17.95;14.85;;;;;;;15.54;82.22;101102.05;1723618;83;21035;-83
2021/09/03 06:30:26;;;;;;;24.67;15.55;;;;;;;15.60;82.03;101094.58;1721634;82;20999;-84
2021/09/03 06:32:52;;;;;;;18.62;14.40;;;;;;;15.68;81.79;101086.42;1710985;83;21304;-81
2021/09/03 06:35:18;;;;;;;23.67;15.50;;;;;;;15.68;81.54;101082.39;1705919;83;21131;-74
2021/09/03 06:37:44;;;;;;;19.20;14.28;;;;;;;15.67;81.34;101088.78;1717934;83;21172;-74
2021/09/03 06:40:10;;;;;;;21.23;15.35;;;;;;;15.81;81.21;101085.25;1719759;82;21011;-74
2021/09/03 06:42:36;;;;;;;18.32;14.33;;;;;;;15.91;80.98;101082.59;1709120;82;21031;-74
2021/09/03 06:45:03;;;;;;;21.70;16.00;;;;;;;15.98;80.71;101086.70;1709518;83;21037;-74
2021/09/03 06:47:30;;;;;;;23.00;18.20;;;;;;;16.11;80.56;101085.54;1699129;84;21064;-74
2021/09/03 06:49:56;;;;;;;19.73;15.05;;;;;;;16.19;80.31;101089.44;1737911;82;21056;-74
2021/09/03 06:52:28;;;;;;;21.00;14.78;;;;;;;16.34;80.11;101086.20;1719854;83;21011;-74
2021/09/03 06:54:50;;;;;;;19.73;13.80;;;;;;;16.32;79.80;101082.89;1712774;83;21056;-74
2021/09/03 06:57:16;;;;;;;23.87;14.80;;;;;;;16.51;79.66;101080.06;1710722;83;21072;-74
2021/09/03 06:59:42;;;;;;;21.42;14.80;;;;;;;16.73;79.51;101077.73;1694422;83;21270;-74
2021/09/03 07:02:08;;;;;;;22.87;14.85;;;;;;;16.87;79.19;101071.94;1700533;83;21669;-74
2021/09/03 07:04:34;;;;;;;21.60;14.30;;;;;;;16.99;78.95;101062.31;1688379;84;21050;-74
2021/09/03 07:07:00;;;;;;;21.48;15.00;;;;;;;17.04;78.71;101066.58;1689966;84;20992;-74
2021/09/03 07:09:26;;;;;;;29.07;17.30;;;;;;;17.05;78.46;101071.46;1712893;83;21053;-75
2021/09/03 07:11:52;;;;;;;25.40;15.53;;;;;;;17.14;78.22;101068.42;1710478;82;21083;-75
2021/09/03 07:14:19;;;;;;;25.00;16.15;;;;;;;17.28;78.02;101070.17;1700110;83;20998;-74
2021/09/03 07:16:45;;;;;;;26.60;17.27;;;;;;;17.49;77.81;101072.80;1715387;83;21399;-74
2021/09/03 07:19:11;;;;;;;23.92;15.43;;;;;;;17.61;77.55;101073.63;1707969;83;21004;-75
2021/09/03 07:21:37;;;;;;;19.67;13.88;;;;;;;17.73;77.33;101076.09;1690907;83;21060;-74
2021/09/03 07:24:04;;;;;;;21.60;14.18;;;;;;;17.82;77.12;101082.98;1693588;83;21070;-74
2021/09/03 07:26:30;;;;;;;23.85;13.68;;;;;;;17.95;76.93;101077.63;1695498;83;21027;-75
2021/09/03 07:28:57;;;;;;;19.52;13.40;;;;;;;18.16;76.73;101076.66;1704094;83;21546;-75
2021/09/03 07:31:23;;;;;;;21.30;12.80;;;;;;;18.38;76.48;101075.50;1711654;83;21031;-74
2021/09/03 07:33:49;;;;;;;16.65;11.55;;;;;;;18.44;76.17;101072.80;1717686;83;21110;-74
2021/09/03 07:36:15;;;;;;;25.23;13.20;;;;;;;18.43;75.88;101073.86;1719069;83;21638;-74
2021/09/03 07:38:42;;;;;;;24.90;12.20;;;;;;;18.52;75.63;101070.98;1717695;83;21080;-75
2021/09/03 07:41:08;;;;;;;22.20;12.63;;;;;;;18.64;75.41;101069.34;1718661;83;21580;-75
2021/09/03 07:43:34;;;;;;;16.23;10.32;;;;;;;18.72;75.10;101065.08;1716604;83;21557;-75
2021/09/03 07:46:00;;;;;;;15.75;10.85;;;;;;;18.85;74.85;101070.52;1715593;83;21643;-75
2021/09/03 07:48:26;;;;;;;17.30;9.73;;;;;;;18.86;74.56;101067.58;1718436;83;21029;-75
2021/09/03 07:50:52;;;;;;;17.17;10.58;;;;;;;18.98;74.28;101056.15;1717433;83;21718;-75
2021/09/03 07:53:18;;;;;;;24.57;10.90;;;;;;;19.18;74.08;101059.15;1717045;83;21645;-76
2021/09/03 07:55:44;;;;;;;19.02;11.00;;;;;;;19.33;73.78;101058.41;1692656;83;21063;-72
2021/09/03 07:58:10;;;;;;;19.40;10.58;;;;;;;19.35;73.44;101056.30;1708175;83;20999;-72
2021/09/03 08:00:36;;;;;;;21.20;11.38;;;;;;;19.34;73.15;101053.31;1720051;83;21228;-72
2021/09/03 08:03:03;;;;;;;18.42;10.82;;;;;;;19.48;72.96;101050.60;1719939;83;21110;-72
2021/09/03 08:05:29;;;;;;;19.45;10.40;;;;;;;19.43;72.50;101056.64;1719525;83;21366;-72
2021/09/03 08:07:55;;;;;;;14.30;10.28;;;;;;;19.42;72.28;101051.75;1719969;83;21507;-72
2021/09/03 08:10:21;;;;;;;17.50;9.70;;;;;;;19.57;72.08;101046.61;1719923;83;21112;-72
2021/09/03 08:15:33;;;;;;;17.10;10.63;;;;;;;19.65;71.43;101045.87;1831711;77;27816;-72
2021/09/03 08:18:00;;;;;;;16.62;10.48;;;;;;;19.67;71.05;101046.47;1814316;77;21050;-72
2021/09/03 08:20:26;;;;;;;14.60;9.25;;;;;;;19.75;70.75;101042.70;1825973;77;21312;-72
2021/09/03 08:22:52;;;;;;;14.58;9.43;;;;;;;19.76;70.44;101036.25;1826078;77;21022;-72
2021/09/03 08:25:19;;;;;;;15.32;9.08;;;;;;;19.85;70.29;101034.95;1833879;77;21076;-72
2021/09/03 08:27:48;;;;;;;16.50;9.08;;;;;;;19.85;70.00;101032.25;1825724;77;21307;-72
2021/09/03 08:30:14;;;;;;;16.10;9.95;;;;;;;19.71;69.80;101038.24;1838633;77;21570;-72
2021/09/03 08:32:40;;;;;;;18.62;9.45;;;;;;;19.53;69.57;101035.38;1836469;77;21327;-77
2021/09/03 08:35:06;;;;;;;19.37;9.30;;;;;;;19.61;69.54;101037.86;1825906;78;21034;-76
2021/09/03 08:37:32;;;;;;;13.70;8.30;;;;;;;19.84;69.43;101033.31;1819632;77;21008;-77
2021/09/03 08:39:59;;;;;;;16.48;8.35;;;;;;;19.99;69.13;101036.55;1810736;77;21022;-77
2021/09/03 08:42:26;;;;;;;17.98;8.13;;;;;;;19.98;68.78;101033.56;1814458;78;20983;-77
2021/09/03 08:44:55;;;;;;;13.78;8.38;;;;;;;19.78;68.52;101026.03;1820057;78;21413;-77
2021/09/03 08:47:21;;;;;;;18.90;8.10;;;;;;;19.69;68.39;101021.40;1815760;77;21072;-77
2021/09/03 08:49:47;;;;;;;15.45;8.48;;;;;;;19.82;68.34;101019.98;1789224;79;21010;-77
2021/09/03 08:52:13;;;;;;;15.35;7.85;;;;;;;20.02;67.98;101002.27;1790009;78;21530;-76
2021/09/03 08:54:40;;;;;;;17.67;9.53;;;;;;;19.99;67.68;101000.00;1788946;79;20953;-77
2021/09/03 08:57:06;;;;;;;18.23;9.93;;;;;;;19.97;67.54;101002.11;1792757;78;21485;-76
2021/09/03 08:59:32;;;;;;;14.40;8.53;;;;;;;19.86;67.26;100996.02;1815352;78;20982;-76
2021/09/03 09:02:19;;;;;;;17.07;9.93;;;;;;;19.59;67.07;100999.89;1790174;78;21031;-77
2021/09/03 09:04:47;;;;;;;13.05;8.13;;;;;;;19.65;67.03;100997.67;1813577;78;21486;-77
2021/09/03 09:07:13;;;;;;;15.50;8.33;;;;;;;19.51;66.66;100990.65;1796919;78;21340;-77
2021/09/03 09:09:43;;;;;;;14.20;8.55;;;;;;;19.44;66.76;100984.75;1791180;78;21182;-77
2021/09/03 09:12:12;;;;;;;19.10;9.18;;;;;;;19.61;66.75;100982.91;1796342;78;21032;-77
2021/09/03 09:15:09;;;;;;;20.62;8.53;;;;;;;19.62;66.61;100989.47;1778769;79;21322;-76
2021/09/03 09:17:40;;;;;;;13.62;7.72;;;;;;;19.63;66.61;100976.78;1765426;81;21003;-76
2021/09/03 09:20:13;;;;;;;20.90;8.20;;;;;;;19.77;66.57;100971.61;1782742;79;20999;-76
2021/09/03 09:22:58;;;;;;;14.25;8.48;;;;;;;19.93;66.56;100975.98;1770394;79;21614;-76
2021/09/03 09:25:32;;;;;;;21.93;8.28;;;;;;;20.17;66.57;100967.61;1777986;80;21483;-77
2021/09/03 09:28:20;;;;;;;11.48;7.28;;;;;;;20.53;66.36;100960.70;1764336;81;21026;-77
2021/09/03 09:30:47;;;;;;;14.28;7.40;;;;;;;20.59;65.98;100962.00;1817308;78;21466;-77
2021/09/03 09:33:17;;;;;;;14.25;7.72;;;;;;;20.69;65.66;100961.52;1823988;77;21522;-77
2021/09/03 09:35:46;;;;;;;;;;;;;;;20.76;65.42;100964.45;1826656;78;21613;-77
2021/09/03 09:38:13;;;;;;;11.45;7.33;;;;;;;20.78;64.93;100957.46;1805181;78;20177;-77
2021/09/03 09:40:55;;;;;;;13.25;7.12;;;;;;;20.75;64.69;100961.98;1803182;78;21072;-77
2021/09/03 09:43:39;;;;;;;11.35;7.40;;;;;;;20.65;64.63;100956.23;1771679;80;20985;-77
2021/09/03 09:46:19;;;;;;;10.95;6.08;;;;;;;20.48;64.47;100960.55;1780847;80;20993;-77
2021/09/03 09:48:57;;;;;;;10.05;6.05;;;;;;;20.47;64.45;100961.59;1792346;79;22140;-77
2021/09/03 09:51:48;;;;;;;10.72;5.83;;;;;;;20.50;64.31;100956.56;1764577;81;21015;-77
2021/09/03 09:54:22;;;;;;;7.22;5.40;;;;;;;20.55;64.03;100946.42;1767639;80;21017;-77
2021/09/03 09:56:54;;;;;;;11.78;6.15;;;;;;;20.44;63.75;100960.97;1782220;79;21078;-72
2021/09/03 09:59:22;;;;;;;11.65;5.80;;;;;;;20.43;63.68;100953.91;1785211;79;21010;-72
2021/09/03 10:01:53;;;;;;;11.05;5.70;;;;;;;20.29;63.50;100956.42;1790645;80;22179;-72
2021/09/03 10:04:24;;;;;;;10.50;5.60;;;;;;;20.40;63.58;100948.94;1790422;79;21049;-72
2021/09/03 10:06:52;;;;;;;9.50;5.55;;;;;;;20.46;63.45;100946.38;1781957;79;21101;-71
2021/09/03 10:09:22;;;;;;;12.40;5.60;;;;;;;20.36;63.19;100939.59;1779894;80;21456;-72
2021/09/03 10:11:53;;;;;;;11.60;5.60;;;;;;;20.16;62.92;100938.85;1792076;80;21002;-72
2021/09/03 10:14:28;;;;;;;8.95;5.40;;;;;;;20.36;62.96;100931.45;1783418;79;21404;-72
2021/09/03 10:16:55;;;;;;;9.70;5.33;;;;;;;20.61;62.74;100939.59;1792126;80;20990;-72
2021/09/03 10:19:30;;;;;;;11.48;5.20;;;;;;;20.59;62.30;100931.34;1764291;81;21033;-71
2021/09/03 10:22:05;;;;;;;13.25;5.67;;;;;;;20.65;62.23;100927.77;1781631;78;21035;-72
2021/09/03 10:24:31;;;;;;;10.08;5.72;;;;;;;20.80;62.12;100922.80;1760327;80;21674;-72
2021/09/03 10:26:58;;;;;;;8.78;5.33;;;;;;;20.84;61.82;100917.24;1752954;81;22164;-72
2021/09/03 10:29:37;;;;;;;9.93;5.20;;;;;;;20.97;61.76;100919.00;1753850;81;21002;-72
2021/09/03 10:32:10;;;;;;;9.88;4.85;;;;;;;20.98;61.57;100916.05;1756519;81;21040;-72
2021/09/03 10:34:51;;;;;;;8.73;4.97;;;;;;;21.04;61.55;100904.30;1780588;80;20987;-72
2021/09/03 10:37:30;;;;;;;6.87;4.70;;;;;;;21.10;61.49;100902.09;1787220;80;21054;-72
2021/09/03 10:40:05;;;;;;;10.18;5.72;;;;;;;21.29;61.42;100901.00;1768569;79;21593;-77
2021/09/03 10:42:46;;;;;;;8.40;4.87;;;;;;;21.48;61.33;100900.98;1742967;82;21021;-77
2021/09/03 10:45:23;;;;;;;9.98;5.22;;;;;;;21.64;61.22;100897.65;1743051;82;21033;-77
2021/09/03 10:48:07;;;;;;;10.80;4.78;;;;;;;21.59;60.38;100902.40;1743196;82;21507;-77
2021/09/03 10:50:50;;;;;;;8.93;4.72;;;;;;;21.65;60.11;100889.25;1743212;82;21486;-77
2021/09/03 10:53:18;;;;;;;8.40;4.65;;;;;;;21.73;59.74;100894.89;1743298;82;21674;-77
2021/09/03 10:56:07;;;;;;;7.85;4.12;;;;;;;21.75;59.43;100894.13;1743048;82;21022;-77
2021/09/03 10:58:53;;;;;;;13.40;4.72;;;;;;;21.82;59.23;100890.78;1743497;82;21029;-77
2021/09/03 11:01:26;;;;;;;9.05;5.10;;;;;;;21.79;58.90;100880.39;1742945;82;21009;-77
2021/09/03 11:03:58;;;;;;;6.42;4.60;;;;;;;21.74;58.65;100882.98;1752697;79;20994;-77
2021/09/03 11:06:37;;;;;;;8.85;4.72;;;;;;;21.70;58.57;100877.19;1773860;80;21649;-76
2021/09/03 11:09:18;;;;;;;7.92;5.00;;;;;;;21.79;58.41;100874.43;1791606;79;21002;-77
2021/09/03 11:11:47;;;;;;;13.32;5.12;;;;;;;21.81;58.33;100872.86;1792951;80;21022;-76
2021/09/03 11:14:15;;;;;;;7.67;4.53;;;;;;;21.86;58.37;100877.04;1766500;79;21041;-77
2021/09/03 11:16:44;;;;;;;6.95;4.97;;;;;;;22.03;58.24;100870.44;1825000;78;21444;-76
2021/09/03 11:19:32;;;;;;;6.50;4.50;;;;;;;22.14;58.23;100871.82;1822496;78;21746;-77
2021/09/03 11:22:06;;;;;;;12.65;5.87;;;;;;;22.14;57.79;100869.62;1792717;80;20883;-77
2021/09/03 11:24:43;;;;;;;8.50;4.80;;;;;;;22.15;57.70;100862.62;1824853;78;21238;-77
2021/09/03 11:27:12;;;;;;;9.25;4.95;;;;;;;22.21;57.59;100860.31;1816215;79;21005;-77
2021/09/03 11:29:50;;;;;;;10.43;5.57;;;;;;;22.25;57.49;100858.78;1817473;79;20993;-77
2021/09/03 11:32:22;;;;;;;11.03;5.28;;;;;;;22.19;57.36;100848.03;1817453;79;21610;-77
2021/09/03 11:35:02;;;;;;;6.45;5.08;;;;;;;22.15;57.33;100845.48;1817044;79;21438;-77
2021/09/03 11:37:38;;;;;;;12.65;5.60;;;;;;;21.99;57.06;100852.97;1817099;79;20932;-77
2021/09/03 11:40:23;;;;;;;11.40;5.90;;;;;;;21.97;57.04;100854.55;1817215;79;21556;-77
2021/09/03 11:42:52;;;;;;;8.65;5.45;;;;;;;22.02;57.03;100847.06;1817077;79;21035;-77
2021/09/03 11:45:27;;;;;;;11.25;5.72;;;;;;;22.04;56.93;100846.29;1817328;79;22376;-77
2021/09/03 11:48:04;;;;;;;8.50;5.10;;;;;;;22.11;56.84;100842.94;1817266;79;20992;-77
2021/09/03 11:50:40;;;;;;;7.75;4.78;;;;;;;22.22;56.71;100844.31;1817078;79;21791;-77
2021/09/03 11:53:21;;;;;;;6.78;5.20;;;;;;;22.21;56.50;100840.45;1817217;79;20988;-77
2021/09/03 11:55:48;;;;;;;10.23;5.60;;;;;;;22.12;56.33;100834.56;1808525;79;21024;-77
2021/09/03 11:58:18;;;;;;;7.70;4.45;;;;;;;22.21;56.42;100839.93;1817364;78;22432;-77
2021/09/03 12:00:47;;;;;;;7.35;5.53;;;;;;;22.29;56.40;100834.68;1816513;79;20889;-77
2021/09/03 12:03:16;;;;;;;;;;;;;;;22.25;56.25;100836.22;1818175;79;20956;-77
2021/09/03 12:05:50;;;;;;;10.43;5.97;;;;;;;22.24;56.04;100829.95;1816524;78;20153;-77
2021/09/03 12:08:35;;;;;;;13.60;6.62;;;;;;;22.27;55.91;100827.31;1817126;79;21401;-77
2021/09/03 12:11:08;;;;;;;7.80;4.35;;;;;;;22.30;55.88;100826.31;1816888;79;21872;-78
2021/09/03 12:13:55;;;;;;;8.98;4.75;;;;;;;22.34;55.73;100824.74;1790958;79;20992;-77
2021/09/03 12:16:27;;;;;;;12.40;5.28;;;;;;;22.31;55.39;100822.50;1815230;78;20973;-77